sensor_id;sensor_type;location;lat;lon;timestamp;P1;durP1;ratioP1;P2;durP2;ratioP2
48621;SDS011;34421;48.944;9.460;2023-05-10T00:02:15;0.20;;;0.10;;
48621;SDS011;34421;48.944;9.460;2023-05-10T00:04:41;0.35;;;0.10;;
48621;SDS011;34421;48.944;9.460;2023-05-10T00:07:06;0.80;;;0.20;;
48621;SDS011;34421;48.944;9.460;2023-05-10T00:09:31;0.20;;;0.13;;
48621;SDS011;34421;48.944;9.460;2023-05-10T00:11:57;0.28;;;0.10;;
48621;SDS011;34421;48.944;9.460;2023-05-10T00:14:23;0.65;;;0.20;;
48621;SDS011;34421;48.944;9.460;2023-05-10T00:16:48;0.50;;;0.20;;
48621;SDS011;34421;48.944;9.460;2023-05-10T00:19:13;0.28;;;0.20;;
48621;SDS011;34421;48.944;9.460;2023-05-10T00:21:39;0.73;;;0.28;;
48621;SDS011;34421;48.944;9.460;2023-05-10T00:24:04;1.50;;;0.43;;
48621;SDS011;34421;48.944;9.460;2023-05-10T00:26:30;0.45;;;0.20;;
48621;SDS011;34421;48.944;9.460;2023-05-10T00:28:55;0.38;;;0.15;;
48621;SDS011;34421;48.944;9.460;2023-05-10T00:31:21;0.90;;;0.10;;
48621;SDS011;34421;48.944;9.460;2023-05-10T00:33:47;0.47;;;0.10;;
48621;SDS011;34421;48.944;9.460;2023-05-10T00:36:12;0.20;;;0.05;;
48621;SDS011;34421;48.944;9.460;2023-05-10T00:38:37;2.17;;;0.20;;
48621;SDS011;34421;48.944;9.460;2023-05-10T00:41:03;0.75;;;0.10;;
48621;SDS011;34421;48.944;9.460;2023-05-10T00:43:28;0.70;;;0.10;;
48621;SDS011;34421;48.944;9.460;2023-05-10T00:45:53;0.10;;;0.10;;
48621;SDS011;34421;48.944;9.460;2023-05-10T00:48:19;0.30;;;0.20;;
48621;SDS011;34421;48.944;9.460;2023-05-10T00:50:45;0.73;;;0.17;;
48621;SDS011;34421;48.944;9.460;2023-05-10T00:53:10;0.17;;;0.03;;
48621;SDS011;34421;48.944;9.460;2023-05-10T00:55:36;1.50;;;0.17;;
48621;SDS011;34421;48.944;9.460;2023-05-10T00:58:02;0.73;;;0.20;;
48621;SDS011;34421;48.944;9.460;2023-05-10T01:00:28;0.20;;;0.00;;
48621;SDS011;34421;48.944;9.460;2023-05-10T01:02:54;0.10;;;0.10;;
48621;SDS011;34421;48.944;9.460;2023-05-10T01:05:20;0.30;;;0.10;;
48621;SDS011;34421;48.944;9.460;2023-05-10T01:07:45;0.03;;;0.03;;
48621;SDS011;34421;48.944;9.460;2023-05-10T01:10:10;0.00;;;0.00;;
48621;SDS011;34421;48.944;9.460;2023-05-10T01:12:37;0.17;;;0.10;;
48621;SDS011;34421;48.944;9.460;2023-05-10T01:15:05;0.75;;;0.00;;
48621;SDS011;34421;48.944;9.460;2023-05-10T01:17:33;0.10;;;0.10;;
48621;SDS011;34421;48.944;9.460;2023-05-10T01:19:59;0.00;;;0.00;;
48621;SDS011;34421;48.944;9.460;2023-05-10T01:33:19;0.10;;;0.00;;
48621;SDS011;34421;48.944;9.460;2023-05-10T01:35:54;0.00;;;0.00;;
48621;SDS011;34421;48.944;9.460;2023-05-10T01:41:08;0.30;;;0.10;;
48621;SDS011;34421;48.944;9.460;2023-05-10T01:46:32;0.43;;;0.22;;
48621;SDS011;34421;48.944;9.460;2023-05-10T01:49:03;0.38;;;0.20;;
48621;SDS011;34421;48.944;9.460;2023-05-10T01:51:53;0.43;;;0.22;;
48621;SDS011;34421;48.944;9.460;2023-05-10T01:54:23;0.20;;;0.10;;
48621;SDS011;34421;48.944;9.460;2023-05-10T01:56:55;0.50;;;0.20;;
48621;SDS011;34421;48.944;9.460;2023-05-10T01:59:26;0.50;;;0.20;;
48621;SDS011;34421;48.944;9.460;2023-05-10T02:01:56;0.47;;;0.20;;
48621;SDS011;34421;48.944;9.460;2023-05-10T02:04:23;0.35;;;0.10;;
48621;SDS011;34421;48.944;9.460;2023-05-10T02:06:50;0.40;;;0.20;;
48621;SDS011;34421;48.944;9.460;2023-05-10T02:09:17;0.35;;;0.20;;
48621;SDS011;34421;48.944;9.460;2023-05-10T02:11:44;0.30;;;0.20;;
48621;SDS011;34421;48.944;9.460;2023-05-10T02:14:12;0.30;;;0.20;;
48621;SDS011;34421;48.944;9.460;2023-05-10T02:16:40;0.68;;;0.25;;
48621;SDS011;34421;48.944;9.460;2023-05-10T02:19:07;0.55;;;0.22;;
48621;SDS011;34421;48.944;9.460;2023-05-10T02:21:33;0.55;;;0.20;;
48621;SDS011;34421;48.944;9.460;2023-05-10T02:24:01;0.38;;;0.20;;
48621;SDS011;34421;48.944;9.460;2023-05-10T02:26:28;0.25;;;0.15;;
48621;SDS011;34421;48.944;9.460;2023-05-10T02:28:54;0.25;;;0.20;;
48621;SDS011;34421;48.944;9.460;2023-05-10T02:31:21;0.17;;;0.13;;
48621;SDS011;34421;48.944;9.460;2023-05-10T02:33:47;0.45;;;0.17;;
48621;SDS011;34421;48.944;9.460;2023-05-10T02:36:13;3.20;;;0.90;;
48621;SDS011;34421;48.944;9.460;2023-05-10T02:38:40;0.90;;;0.38;;
48621;SDS011;34421;48.944;9.460;2023-05-10T02:41:06;1.15;;;0.45;;
48621;SDS011;34421;48.944;9.460;2023-05-10T02:43:33;0.77;;;0.30;;
48621;SDS011;34421;48.944;9.460;2023-05-10T02:46:00;0.98;;;0.28;;
48621;SDS011;34421;48.944;9.460;2023-05-10T02:48:26;0.38;;;0.22;;
48621;SDS011;34421;48.944;9.460;2023-05-10T02:50:52;0.70;;;0.20;;
48621;SDS011;34421;48.944;9.460;2023-05-10T02:53:21;0.70;;;0.35;;
48621;SDS011;34421;48.944;9.460;2023-05-10T02:55:49;0.43;;;0.30;;
48621;SDS011;34421;48.944;9.460;2023-05-10T02:58:16;0.50;;;0.20;;
48621;SDS011;34421;48.944;9.460;2023-05-10T03:00:44;0.20;;;0.20;;
48621;SDS011;34421;48.944;9.460;2023-05-10T03:03:11;1.83;;;0.68;;
48621;SDS011;34421;48.944;9.460;2023-05-10T03:05:36;0.55;;;0.32;;
48621;SDS011;34421;48.944;9.460;2023-05-10T03:08:01;0.25;;;0.20;;
48621;SDS011;34421;48.944;9.460;2023-05-10T03:10:29;0.85;;;0.25;;
48621;SDS011;34421;48.944;9.460;2023-05-10T03:13:12;0.88;;;0.30;;
48621;SDS011;34421;48.944;9.460;2023-05-10T03:15:55;1.05;;;0.38;;
48621;SDS011;34421;48.944;9.460;2023-05-10T03:18:29;0.80;;;0.30;;
48621;SDS011;34421;48.944;9.460;2023-05-10T03:21:02;1.42;;;0.32;;
48621;SDS011;34421;48.944;9.460;2023-05-10T03:26:26;0.50;;;0.15;;
48621;SDS011;34421;48.944;9.460;2023-05-10T03:28:52;0.40;;;0.20;;
48621;SDS011;34421;48.944;9.460;2023-05-10T03:31:18;0.50;;;0.30;;
48621;SDS011;34421;48.944;9.460;2023-05-10T03:33:50;1.00;;;0.28;;
48621;SDS011;34421;48.944;9.460;2023-05-10T03:36:16;0.32;;;0.20;;
48621;SDS011;34421;48.944;9.460;2023-05-10T03:38:42;0.20;;;0.15;;
48621;SDS011;34421;48.944;9.460;2023-05-10T03:41:07;0.75;;;0.30;;
48621;SDS011;34421;48.944;9.460;2023-05-10T03:43:33;0.22;;;0.15;;
48621;SDS011;34421;48.944;9.460;2023-05-10T03:45:58;0.10;;;0.10;;
48621;SDS011;34421;48.944;9.460;2023-05-10T03:48:23;0.30;;;0.22;;
48621;SDS011;34421;48.944;9.460;2023-05-10T03:50:49;0.40;;;0.30;;
48621;SDS011;34421;48.944;9.460;2023-05-10T03:53:14;0.55;;;0.30;;
48621;SDS011;34421;48.944;9.460;2023-05-10T03:55:40;0.40;;;0.22;;
48621;SDS011;34421;48.944;9.460;2023-05-10T03:58:06;0.40;;;0.30;;
48621;SDS011;34421;48.944;9.460;2023-05-10T04:00:31;0.30;;;0.15;;
48621;SDS011;34421;48.944;9.460;2023-05-10T04:02:57;0.73;;;0.20;;
48621;SDS011;34421;48.944;9.460;2023-05-10T04:05:22;0.80;;;0.30;;
48621;SDS011;34421;48.944;9.460;2023-05-10T04:07:48;0.52;;;0.30;;
48621;SDS011;34421;48.944;9.460;2023-05-10T04:10:14;0.73;;;0.30;;
48621;SDS011;34421;48.944;9.460;2023-05-10T04:12:41;0.73;;;0.40;;
48621;SDS011;34421;48.944;9.460;2023-05-10T04:15:06;0.50;;;0.30;;
48621;SDS011;34421;48.944;9.460;2023-05-10T04:17:32;0.50;;;0.30;;
48621;SDS011;34421;48.944;9.460;2023-05-10T04:19:57;0.63;;;0.30;;
48621;SDS011;34421;48.944;9.460;2023-05-10T04:22:23;0.88;;;0.50;;
48621;SDS011;34421;48.944;9.460;2023-05-10T04:24:48;1.20;;;0.40;;
48621;SDS011;34421;48.944;9.460;2023-05-10T04:27:13;1.02;;;0.40;;
48621;SDS011;34421;48.944;9.460;2023-05-10T04:29:39;1.13;;;0.50;;
48621;SDS011;34421;48.944;9.460;2023-05-10T04:32:04;0.77;;;0.40;;
48621;SDS011;34421;48.944;9.460;2023-05-10T04:34:30;0.40;;;0.30;;
48621;SDS011;34421;48.944;9.460;2023-05-10T04:36:55;0.52;;;0.35;;
48621;SDS011;34421;48.944;9.460;2023-05-10T04:39:20;0.50;;;0.38;;
48621;SDS011;34421;48.944;9.460;2023-05-10T04:41:46;1.40;;;0.65;;
48621;SDS011;34421;48.944;9.460;2023-05-10T04:44:11;1.55;;;0.60;;
48621;SDS011;34421;48.944;9.460;2023-05-10T04:46:36;1.25;;;0.70;;
48621;SDS011;34421;48.944;9.460;2023-05-10T04:49:02;1.15;;;0.60;;
48621;SDS011;34421;48.944;9.460;2023-05-10T04:51:27;1.08;;;0.50;;
48621;SDS011;34421;48.944;9.460;2023-05-10T04:53:52;0.70;;;0.43;;
48621;SDS011;34421;48.944;9.460;2023-05-10T04:56:17;1.50;;;0.73;;
48621;SDS011;34421;48.944;9.460;2023-05-10T04:58:43;1.30;;;0.80;;
48621;SDS011;34421;48.944;9.460;2023-05-10T05:01:08;0.80;;;0.40;;
48621;SDS011;34421;48.944;9.460;2023-05-10T05:03:35;0.90;;;0.57;;
48621;SDS011;34421;48.944;9.460;2023-05-10T05:06:01;1.27;;;0.52;;
48621;SDS011;34421;48.944;9.460;2023-05-10T05:08:26;1.30;;;0.60;;
48621;SDS011;34421;48.944;9.460;2023-05-10T05:10:51;0.90;;;0.45;;
48621;SDS011;34421;48.944;9.460;2023-05-10T05:13:17;1.20;;;0.50;;
48621;SDS011;34421;48.944;9.460;2023-05-10T05:15:42;1.30;;;0.60;;
48621;SDS011;34421;48.944;9.460;2023-05-10T05:18:08;1.13;;;0.60;;
48621;SDS011;34421;48.944;9.460;2023-05-10T05:20:33;1.65;;;0.68;;
48621;SDS011;34421;48.944;9.460;2023-05-10T05:23:01;1.40;;;0.70;;
48621;SDS011;34421;48.944;9.460;2023-05-10T05:25:26;1.30;;;0.63;;
48621;SDS011;34421;48.944;9.460;2023-05-10T05:27:52;1.05;;;0.40;;
48621;SDS011;34421;48.944;9.460;2023-05-10T05:30:17;1.20;;;0.60;;
48621;SDS011;34421;48.944;9.460;2023-05-10T05:32:43;1.10;;;0.60;;
48621;SDS011;34421;48.944;9.460;2023-05-10T05:35:09;1.35;;;0.68;;
48621;SDS011;34421;48.944;9.460;2023-05-10T05:37:34;1.42;;;0.65;;
48621;SDS011;34421;48.944;9.460;2023-05-10T05:40:00;1.13;;;0.50;;
48621;SDS011;34421;48.944;9.460;2023-05-10T05:42:26;1.63;;;0.77;;
48621;SDS011;34421;48.944;9.460;2023-05-10T05:44:52;1.92;;;0.73;;
48621;SDS011;34421;48.944;9.460;2023-05-10T05:47:17;0.93;;;0.50;;
48621;SDS011;34421;48.944;9.460;2023-05-10T05:49:43;0.90;;;0.40;;
48621;SDS011;34421;48.944;9.460;2023-05-10T05:52:10;0.93;;;0.50;;
48621;SDS011;34421;48.944;9.460;2023-05-10T05:54:36;0.98;;;0.57;;
48621;SDS011;34421;48.944;9.460;2023-05-10T05:57:01;1.42;;;0.68;;
48621;SDS011;34421;48.944;9.460;2023-05-10T05:59:27;1.08;;;0.60;;
48621;SDS011;34421;48.944;9.460;2023-05-10T06:01:52;1.58;;;0.60;;
48621;SDS011;34421;48.944;9.460;2023-05-10T06:04:18;2.50;;;0.68;;
48621;SDS011;34421;48.944;9.460;2023-05-10T06:06:43;1.08;;;0.50;;
48621;SDS011;34421;48.944;9.460;2023-05-10T06:09:09;1.33;;;0.75;;
48621;SDS011;34421;48.944;9.460;2023-05-10T06:11:35;1.63;;;0.63;;
48621;SDS011;34421;48.944;9.460;2023-05-10T06:14:00;1.35;;;0.70;;
48621;SDS011;34421;48.944;9.460;2023-05-10T06:16:26;0.65;;;0.40;;
48621;SDS011;34421;48.944;9.460;2023-05-10T06:18:52;2.38;;;0.85;;
48621;SDS011;34421;48.944;9.460;2023-05-10T06:21:17;1.80;;;0.90;;
48621;SDS011;34421;48.944;9.460;2023-05-10T06:23:42;1.83;;;0.73;;
48621;SDS011;34421;48.944;9.460;2023-05-10T06:26:08;1.38;;;0.80;;
48621;SDS011;34421;48.944;9.460;2023-05-10T06:28:34;0.95;;;0.50;;
48621;SDS011;34421;48.944;9.460;2023-05-10T06:31:00;1.17;;;0.77;;
48621;SDS011;34421;48.944;9.460;2023-05-10T06:33:25;1.60;;;0.88;;
48621;SDS011;34421;48.944;9.460;2023-05-10T06:35:51;1.83;;;0.77;;
48621;SDS011;34421;48.944;9.460;2023-05-10T06:38:16;1.20;;;0.70;;
48621;SDS011;34421;48.944;9.460;2023-05-10T06:40:42;1.05;;;0.68;;
48621;SDS011;34421;48.944;9.460;2023-05-10T06:43:08;1.38;;;0.70;;
48621;SDS011;34421;48.944;9.460;2023-05-10T06:45:33;1.50;;;0.70;;
48621;SDS011;34421;48.944;9.460;2023-05-10T06:47:58;1.40;;;0.70;;
48621;SDS011;34421;48.944;9.460;2023-05-10T06:50:24;2.60;;;0.88;;
48621;SDS011;34421;48.944;9.460;2023-05-10T06:52:50;2.20;;;1.05;;
48621;SDS011;34421;48.944;9.460;2023-05-10T06:55:15;1.20;;;0.63;;
48621;SDS011;34421;48.944;9.460;2023-05-10T06:57:40;1.52;;;0.80;;
48621;SDS011;34421;48.944;9.460;2023-05-10T07:00:06;2.28;;;0.90;;
48621;SDS011;34421;48.944;9.460;2023-05-10T07:02:32;2.65;;;0.70;;
48621;SDS011;34421;48.944;9.460;2023-05-10T07:04:57;2.10;;;0.60;;
48621;SDS011;34421;48.944;9.460;2023-05-10T07:07:23;1.15;;;0.63;;
48621;SDS011;34421;48.944;9.460;2023-05-10T07:09:48;1.55;;;0.75;;
48621;SDS011;34421;48.944;9.460;2023-05-10T07:12:15;1.83;;;0.70;;
48621;SDS011;34421;48.944;9.460;2023-05-10T07:14:40;1.98;;;0.95;;
48621;SDS011;34421;48.944;9.460;2023-05-10T07:17:05;1.10;;;0.70;;
48621;SDS011;34421;48.944;9.460;2023-05-10T07:19:31;1.80;;;0.65;;
48621;SDS011;34421;48.944;9.460;2023-05-10T07:21:57;1.27;;;0.60;;
48621;SDS011;34421;48.944;9.460;2023-05-10T07:24:23;2.25;;;0.80;;
48621;SDS011;34421;48.944;9.460;2023-05-10T07:26:49;0.90;;;0.50;;
48621;SDS011;34421;48.944;9.460;2023-05-10T07:29:14;1.15;;;0.50;;
48621;SDS011;34421;48.944;9.460;2023-05-10T07:31:40;1.02;;;0.50;;
48621;SDS011;34421;48.944;9.460;2023-05-10T07:34:06;0.60;;;0.40;;
48621;SDS011;34421;48.944;9.460;2023-05-10T07:36:32;0.55;;;0.50;;
48621;SDS011;34421;48.944;9.460;2023-05-10T07:38:57;1.55;;;0.50;;
48621;SDS011;34421;48.944;9.460;2023-05-10T07:41:23;1.27;;;0.55;;
48621;SDS011;34421;48.944;9.460;2023-05-10T07:43:48;1.05;;;0.50;;
48621;SDS011;34421;48.944;9.460;2023-05-10T07:46:13;1.58;;;0.50;;
48621;SDS011;34421;48.944;9.460;2023-05-10T07:48:39;1.10;;;0.43;;
48621;SDS011;34421;48.944;9.460;2023-05-10T07:51:04;0.68;;;0.40;;
48621;SDS011;34421;48.944;9.460;2023-05-10T07:53:31;1.13;;;0.63;;
48621;SDS011;34421;48.944;9.460;2023-05-10T07:55:57;0.77;;;0.40;;
48621;SDS011;34421;48.944;9.460;2023-05-10T07:58:23;0.93;;;0.38;;
48621;SDS011;34421;48.944;9.460;2023-05-10T08:00:49;1.20;;;0.40;;
48621;SDS011;34421;48.944;9.460;2023-05-10T08:03:15;0.95;;;0.45;;
48621;SDS011;34421;48.944;9.460;2023-05-10T08:05:40;0.57;;;0.20;;
48621;SDS011;34421;48.944;9.460;2023-05-10T08:08:06;0.50;;;0.30;;
48621;SDS011;34421;48.944;9.460;2023-05-10T08:10:31;0.70;;;0.30;;
48621;SDS011;34421;48.944;9.460;2023-05-10T08:12:57;1.15;;;0.45;;
48621;SDS011;34421;48.944;9.460;2023-05-10T08:15:24;0.70;;;0.30;;
48621;SDS011;34421;48.944;9.460;2023-05-10T08:17:51;0.70;;;0.30;;
48621;SDS011;34421;48.944;9.460;2023-05-10T08:20:16;1.00;;;0.50;;
48621;SDS011;34421;48.944;9.460;2023-05-10T08:22:44;0.77;;;0.30;;
48621;SDS011;34421;48.944;9.460;2023-05-10T08:25:10;0.38;;;0.20;;
48621;SDS011;34421;48.944;9.460;2023-05-10T08:27:35;0.20;;;0.10;;
48621;SDS011;34421;48.944;9.460;2023-05-10T08:30:00;0.77;;;0.20;;
48621;SDS011;34421;48.944;9.460;2023-05-10T08:32:26;1.70;;;0.25;;
48621;SDS011;34421;48.944;9.460;2023-05-10T08:34:51;0.90;;;0.40;;
48621;SDS011;34421;48.944;9.460;2023-05-10T08:37:16;1.00;;;0.40;;
48621;SDS011;34421;48.944;9.460;2023-05-10T08:39:42;1.27;;;0.22;;
48621;SDS011;34421;48.944;9.460;2023-05-10T08:42:07;0.77;;;0.22;;
48621;SDS011;34421;48.944;9.460;2023-05-10T08:44:34;0.30;;;0.20;;
48621;SDS011;34421;48.944;9.460;2023-05-10T08:47:04;0.88;;;0.20;;
48621;SDS011;34421;48.944;9.460;2023-05-10T08:49:32;0.30;;;0.10;;
48621;SDS011;34421;48.944;9.460;2023-05-10T08:51:59;2.15;;;0.20;;
48621;SDS011;34421;48.944;9.460;2023-05-10T08:54:28;0.30;;;0.10;;
48621;SDS011;34421;48.944;9.460;2023-05-10T08:56:55;0.17;;;0.10;;
48621;SDS011;34421;48.944;9.460;2023-05-10T08:59:21;0.10;;;0.10;;
48621;SDS011;34421;48.944;9.460;2023-05-10T09:01:47;0.28;;;0.13;;
48621;SDS011;34421;48.944;9.460;2023-05-10T09:04:14;0.25;;;0.10;;
48621;SDS011;34421;48.944;9.460;2023-05-10T09:06:39;0.10;;;0.03;;
48621;SDS011;34421;48.944;9.460;2023-05-10T09:09:06;0.63;;;0.20;;
48621;SDS011;34421;48.944;9.460;2023-05-10T09:11:31;0.35;;;0.00;;
48621;SDS011;34421;48.944;9.460;2023-05-10T09:13:57;0.38;;;0.10;;
48621;SDS011;34421;48.944;9.460;2023-05-10T09:16:23;0.63;;;0.15;;
48621;SDS011;34421;48.944;9.460;2023-05-10T09:18:48;0.20;;;0.10;;
48621;SDS011;34421;48.944;9.460;2023-05-10T09:21:14;0.32;;;0.00;;
48621;SDS011;34421;48.944;9.460;2023-05-10T09:23:42;0.10;;;0.05;;
48621;SDS011;34421;48.944;9.460;2023-05-10T09:26:08;0.10;;;0.10;;
48621;SDS011;34421;48.944;9.460;2023-05-10T09:28:34;0.10;;;0.10;;
48621;SDS011;34421;48.944;9.460;2023-05-10T09:31:14;0.25;;;0.10;;
48621;SDS011;34421;48.944;9.460;2023-05-10T09:33:43;0.40;;;0.10;;
48621;SDS011;34421;48.944;9.460;2023-05-10T09:36:09;1.38;;;0.10;;
48621;SDS011;34421;48.944;9.460;2023-05-10T09:38:48;0.20;;;0.10;;
48621;SDS011;34421;48.944;9.460;2023-05-10T09:41:18;0.10;;;0.10;;
48621;SDS011;34421;48.944;9.460;2023-05-10T09:43:45;0.50;;;0.10;;
48621;SDS011;34421;48.944;9.460;2023-05-10T09:46:11;0.10;;;0.10;;
48621;SDS011;34421;48.944;9.460;2023-05-10T09:48:46;0.10;;;0.00;;
48621;SDS011;34421;48.944;9.460;2023-05-10T09:51:19;0.28;;;0.10;;
48621;SDS011;34421;48.944;9.460;2023-05-10T09:53:48;0.10;;;0.10;;
48621;SDS011;34421;48.944;9.460;2023-05-10T09:56:32;0.20;;;0.00;;
48621;SDS011;34421;48.944;9.460;2023-05-10T09:59:02;0.32;;;0.20;;
48621;SDS011;34421;48.944;9.460;2023-05-10T10:01:28;0.63;;;0.00;;
48621;SDS011;34421;48.944;9.460;2023-05-10T10:03:54;0.00;;;0.00;;
48621;SDS011;34421;48.944;9.460;2023-05-10T10:06:19;0.22;;;0.00;;
48621;SDS011;34421;48.944;9.460;2023-05-10T10:08:45;0.15;;;0.05;;
48621;SDS011;34421;48.944;9.460;2023-05-10T10:11:11;0.43;;;0.10;;
48621;SDS011;34421;48.944;9.460;2023-05-10T10:13:36;0.20;;;0.10;;
48621;SDS011;34421;48.944;9.460;2023-05-10T10:16:02;0.70;;;0.10;;
48621;SDS011;34421;48.944;9.460;2023-05-10T10:18:27;1.02;;;0.20;;
48621;SDS011;34421;48.944;9.460;2023-05-10T10:20:55;1.23;;;0.15;;
48621;SDS011;34421;48.944;9.460;2023-05-10T10:23:21;0.00;;;0.00;;
48621;SDS011;34421;48.944;9.460;2023-05-10T10:25:46;0.10;;;0.10;;
48621;SDS011;34421;48.944;9.460;2023-05-10T10:28:23;0.57;;;0.13;;
48621;SDS011;34421;48.944;9.460;2023-05-10T10:30:57;0.22;;;0.10;;
48621;SDS011;34421;48.944;9.460;2023-05-10T10:36:29;0.20;;;0.10;;
48621;SDS011;34421;48.944;9.460;2023-05-10T10:38:58;1.88;;;0.20;;
48621;SDS011;34421;48.944;9.460;2023-05-10T10:52:13;0.00;;;0.00;;
48621;SDS011;34421;48.944;9.460;2023-05-10T10:54:53;0.10;;;0.03;;
48621;SDS011;34421;48.944;9.460;2023-05-10T10:57:21;0.32;;;0.13;;
48621;SDS011;34421;48.944;9.460;2023-05-10T10:59:47;0.20;;;0.10;;
48621;SDS011;34421;48.944;9.460;2023-05-10T11:05:40;2.70;;;0.68;;
48621;SDS011;34421;48.944;9.460;2023-05-10T11:07:58;0.75;;;0.10;;
48621;SDS011;34421;48.944;9.460;2023-05-10T11:10:26;0.20;;;0.00;;
48621;SDS011;34421;48.944;9.460;2023-05-10T11:12:53;1.45;;;0.17;;
48621;SDS011;34421;48.944;9.460;2023-05-10T11:15:29;0.22;;;0.10;;
48621;SDS011;34421;48.944;9.460;2023-05-10T11:17:58;0.50;;;0.15;;
48621;SDS011;34421;48.944;9.460;2023-05-10T11:20:23;0.65;;;0.10;;
48621;SDS011;34421;48.944;9.460;2023-05-10T11:22:58;0.22;;;0.20;;
48621;SDS011;34421;48.944;9.460;2023-05-10T11:25:35;0.10;;;0.10;;
48621;SDS011;34421;48.944;9.460;2023-05-10T11:28:06;0.10;;;0.10;;
48621;SDS011;34421;48.944;9.460;2023-05-10T11:30:31;1.05;;;0.10;;
48621;SDS011;34421;48.944;9.460;2023-05-10T11:32:57;0.35;;;0.10;;
48621;SDS011;34421;48.944;9.460;2023-05-10T11:35:22;0.32;;;0.20;;
48621;SDS011;34421;48.944;9.460;2023-05-10T11:37:47;0.30;;;0.10;;
48621;SDS011;34421;48.944;9.460;2023-05-10T11:40:13;0.40;;;0.10;;
48621;SDS011;34421;48.944;9.460;2023-05-10T11:42:39;0.90;;;0.20;;
48621;SDS011;34421;48.944;9.460;2023-05-10T11:45:05;0.47;;;0.10;;
48621;SDS011;34421;48.944;9.460;2023-05-10T11:47:31;0.55;;;0.08;;
48621;SDS011;34421;48.944;9.460;2023-05-10T11:49:56;0.10;;;0.10;;
48621;SDS011;34421;48.944;9.460;2023-05-10T11:52:22;1.08;;;0.20;;
48621;SDS011;34421;48.944;9.460;2023-05-10T11:54:52;0.20;;;0.17;;
48621;SDS011;34421;48.944;9.460;2023-05-10T11:57:18;0.35;;;0.10;;
48621;SDS011;34421;48.944;9.460;2023-05-10T11:59:45;0.30;;;0.15;;
48621;SDS011;34421;48.944;9.460;2023-05-10T12:02:12;1.10;;;0.20;;
48621;SDS011;34421;48.944;9.460;2023-05-10T12:04:38;0.10;;;0.10;;
48621;SDS011;34421;48.944;9.460;2023-05-10T12:07:04;0.38;;;0.10;;
48621;SDS011;34421;48.944;9.460;2023-05-10T12:09:30;1.08;;;0.30;;
48621;SDS011;34421;48.944;9.460;2023-05-10T12:11:55;0.73;;;0.20;;
48621;SDS011;34421;48.944;9.460;2023-05-10T12:14:22;1.65;;;0.20;;
48621;SDS011;34421;48.944;9.460;2023-05-10T12:16:47;0.10;;;0.10;;
48621;SDS011;34421;48.944;9.460;2023-05-10T12:19:13;0.20;;;0.10;;
48621;SDS011;34421;48.944;9.460;2023-05-10T12:21:44;0.30;;;0.10;;
48621;SDS011;34421;48.944;9.460;2023-05-10T12:24:09;0.60;;;0.28;;
48621;SDS011;34421;48.944;9.460;2023-05-10T12:26:35;0.35;;;0.20;;
48621;SDS011;34421;48.944;9.460;2023-05-10T12:31:58;0.10;;;0.10;;
48621;SDS011;34421;48.944;9.460;2023-05-10T12:34:25;1.77;;;0.10;;
48621;SDS011;34421;48.944;9.460;2023-05-10T12:36:56;1.52;;;0.20;;
48621;SDS011;34421;48.944;9.460;2023-05-10T12:39:21;0.22;;;0.10;;
48621;SDS011;34421;48.944;9.460;2023-05-10T12:41:47;0.52;;;0.13;;
48621;SDS011;34421;48.944;9.460;2023-05-10T12:44:12;0.75;;;0.28;;
48621;SDS011;34421;48.944;9.460;2023-05-10T12:46:37;1.38;;;0.20;;
48621;SDS011;34421;48.944;9.460;2023-05-10T12:49:03;1.13;;;0.10;;
48621;SDS011;34421;48.944;9.460;2023-05-10T12:51:28;0.20;;;0.10;;
48621;SDS011;34421;48.944;9.460;2023-05-10T12:53:53;0.85;;;0.10;;
48621;SDS011;34421;48.944;9.460;2023-05-10T12:56:19;0.57;;;0.20;;
48621;SDS011;34421;48.944;9.460;2023-05-10T12:58:45;0.20;;;0.10;;
48621;SDS011;34421;48.944;9.460;2023-05-10T13:01:12;0.68;;;0.15;;
48621;SDS011;34421;48.944;9.460;2023-05-10T13:03:39;0.70;;;0.30;;
48621;SDS011;34421;48.944;9.460;2023-05-10T13:06:04;0.95;;;0.30;;
48621;SDS011;34421;48.944;9.460;2023-05-10T13:08:30;0.52;;;0.20;;
48621;SDS011;34421;48.944;9.460;2023-05-10T13:10:58;0.35;;;0.30;;
48621;SDS011;34421;48.944;9.460;2023-05-10T13:13:24;0.47;;;0.10;;
48621;SDS011;34421;48.944;9.460;2023-05-10T13:15:49;1.33;;;0.40;;
48621;SDS011;34421;48.944;9.460;2023-05-10T13:18:15;0.32;;;0.20;;
48621;SDS011;34421;48.944;9.460;2023-05-10T13:20:40;0.10;;;0.10;;
48621;SDS011;34421;48.944;9.460;2023-05-10T13:23:05;0.57;;;0.20;;
48621;SDS011;34421;48.944;9.460;2023-05-10T13:25:31;1.38;;;0.15;;
48621;SDS011;34421;48.944;9.460;2023-05-10T13:27:56;0.15;;;0.10;;
48621;SDS011;34421;48.944;9.460;2023-05-10T13:30:22;0.60;;;0.20;;
48621;SDS011;34421;48.944;9.460;2023-05-10T13:32:48;0.88;;;0.10;;
48621;SDS011;34421;48.944;9.460;2023-05-10T13:35:14;0.77;;;0.40;;
48621;SDS011;34421;48.944;9.460;2023-05-10T13:37:39;1.23;;;0.30;;
48621;SDS011;34421;48.944;9.460;2023-05-10T13:40:05;0.43;;;0.20;;
48621;SDS011;34421;48.944;9.460;2023-05-10T13:42:31;0.85;;;0.30;;
48621;SDS011;34421;48.944;9.460;2023-05-10T13:44:58;0.85;;;0.20;;
48621;SDS011;34421;48.944;9.460;2023-05-10T13:47:24;0.65;;;0.10;;
48621;SDS011;34421;48.944;9.460;2023-05-10T13:49:49;0.10;;;0.10;;
48621;SDS011;34421;48.944;9.460;2023-05-10T13:52:14;0.50;;;0.10;;
48621;SDS011;34421;48.944;9.460;2023-05-10T13:54:39;0.40;;;0.20;;
48621;SDS011;34421;48.944;9.460;2023-05-10T13:57:05;1.80;;;0.25;;
48621;SDS011;34421;48.944;9.460;2023-05-10T13:59:31;0.32;;;0.20;;
48621;SDS011;34421;48.944;9.460;2023-05-10T14:01:57;0.80;;;0.17;;
48621;SDS011;34421;48.944;9.460;2023-05-10T14:04:23;0.00;;;0.00;;
48621;SDS011;34421;48.944;9.460;2023-05-10T14:06:49;0.10;;;0.00;;
48621;SDS011;34421;48.944;9.460;2023-05-10T14:09:14;0.17;;;0.17;;
48621;SDS011;34421;48.944;9.460;2023-05-10T14:11:39;0.90;;;0.10;;
48621;SDS011;34421;48.944;9.460;2023-05-10T14:14:08;0.20;;;0.10;;
48621;SDS011;34421;48.944;9.460;2023-05-10T14:16:33;0.20;;;0.10;;
48621;SDS011;34421;48.944;9.460;2023-05-10T14:18:59;0.43;;;0.15;;
48621;SDS011;34421;48.944;9.460;2023-05-10T14:21:24;0.00;;;0.00;;
48621;SDS011;34421;48.944;9.460;2023-05-10T14:23:49;0.43;;;0.20;;
48621;SDS011;34421;48.944;9.460;2023-05-10T14:26:15;0.40;;;0.13;;
48621;SDS011;34421;48.944;9.460;2023-05-10T14:28:40;1.25;;;0.20;;
48621;SDS011;34421;48.944;9.460;2023-05-10T14:31:05;0.93;;;0.22;;
48621;SDS011;34421;48.944;9.460;2023-05-10T14:33:31;0.32;;;0.10;;
48621;SDS011;34421;48.944;9.460;2023-05-10T14:35:56;0.80;;;0.20;;
48621;SDS011;34421;48.944;9.460;2023-05-10T14:38:22;0.20;;;0.10;;
48621;SDS011;34421;48.944;9.460;2023-05-10T14:40:48;0.98;;;0.22;;
48621;SDS011;34421;48.944;9.460;2023-05-10T14:43:13;0.75;;;0.20;;
48621;SDS011;34421;48.944;9.460;2023-05-10T14:45:38;0.30;;;0.10;;
48621;SDS011;34421;48.944;9.460;2023-05-10T14:48:04;0.82;;;0.10;;
48621;SDS011;34421;48.944;9.460;2023-05-10T14:50:36;0.50;;;0.20;;
48621;SDS011;34421;48.944;9.460;2023-05-10T14:53:01;1.15;;;0.43;;
48621;SDS011;34421;48.944;9.460;2023-05-10T14:55:26;0.47;;;0.30;;
48621;SDS011;34421;48.944;9.460;2023-05-10T14:57:52;0.40;;;0.20;;
48621;SDS011;34421;48.944;9.460;2023-05-10T15:00:17;0.40;;;0.17;;
48621;SDS011;34421;48.944;9.460;2023-05-10T15:02:44;0.20;;;0.20;;
48621;SDS011;34421;48.944;9.460;2023-05-10T15:05:09;0.68;;;0.20;;
48621;SDS011;34421;48.944;9.460;2023-05-10T15:07:34;0.40;;;0.25;;
48621;SDS011;34421;48.944;9.460;2023-05-10T15:10:00;0.17;;;0.13;;
48621;SDS011;34421;48.944;9.460;2023-05-10T15:12:25;0.85;;;0.15;;
48621;SDS011;34421;48.944;9.460;2023-05-10T15:14:51;0.43;;;0.17;;
48621;SDS011;34421;48.944;9.460;2023-05-10T15:17:16;0.93;;;0.30;;
48621;SDS011;34421;48.944;9.460;2023-05-10T15:19:41;0.38;;;0.22;;
48621;SDS011;34421;48.944;9.460;2023-05-10T15:22:07;0.93;;;0.20;;
48621;SDS011;34421;48.944;9.460;2023-05-10T15:24:33;0.15;;;0.08;;